Van Buren, Maine
Current Conditions -  °F | °C
As of 9:54 PM on Friday 19 Dec 2014 (Local Time) from KCAR Reporting Station
Clear Clear  
Wind Chill:   Ceiling: Unl
Heat Index: 15°   Visibility: 10mi
Dew Point: 12°   Wind: 5mph
Humidity: 88%   Direction: 320°NW
Pressure: 30.1"   Gusts: NA
Location:  47.15°N, 67.94°W
Report Text: KCAR 200254Z AUTO 32004KT 10SM CLR M09/M11 A3010 RMK AO2 SLP207 T10941111 51023
Loading
Personal Weather Stations






























Interactive Weather Map New forecast layout! Learn more

10-Day Weather Forecast

Advertisements
Track Severe Weather on mobile